createdAt,value
2023-02-19T00:01:42.233Z,10.50
2023-02-19T00:04:14.900Z,10.40
2023-02-19T00:06:43.073Z,10.40
2023-02-19T00:09:11.721Z,10.40
2023-02-19T00:11:40.081Z,10.40
2023-02-19T00:14:08.991Z,10.40
2023-02-19T00:16:39.098Z,10.40
2023-02-19T00:19:08.848Z,10.40
2023-02-19T00:21:35.941Z,10.40
2023-02-19T00:24:04.954Z,10.30
2023-02-19T00:26:32.560Z,10.30
2023-02-19T00:29:02.248Z,10.30
2023-02-19T00:31:32.976Z,10.30
2023-02-19T00:34:02.906Z,10.20
2023-02-19T00:36:31.161Z,10.20
2023-02-19T00:38:58.341Z,10.30
2023-02-19T00:41:25.973Z,10.30
2023-02-19T00:44:01.285Z,10.20
2023-02-19T00:46:37.036Z,10.20
2023-02-19T00:49:05.827Z,10.20
2023-02-19T00:51:35.792Z,10.20
2023-02-19T00:54:02.837Z,10.20
2023-02-19T00:56:29.837Z,10.20
2023-02-19T00:58:56.959Z,10.20
2023-02-19T01:01:24.015Z,10.20
2023-02-19T01:03:51.231Z,10.30
2023-02-19T01:06:23.179Z,10.20
2023-02-19T01:08:51.096Z,10.20
2023-02-19T01:11:18.678Z,10.20
2023-02-19T01:13:45.625Z,10.20
2023-02-19T01:16:19.525Z,10.20
2023-02-19T01:18:47.901Z,10.20
2023-02-19T01:21:21.224Z,10.20
2023-02-19T01:23:49.324Z,10.20
2023-02-19T01:26:20.700Z,10.20
2023-02-19T01:28:48.434Z,10.20
2023-02-19T01:31:18.947Z,10.20
2023-02-19T01:33:51.062Z,10.20
2023-02-19T01:36:19.030Z,10.10
2023-02-19T01:38:46.490Z,10.20
2023-02-19T01:41:21.180Z,10.10
2023-02-19T01:44:05.026Z,10.20
2023-02-19T01:46:34.787Z,10.20
2023-02-19T01:49:16.266Z,10.10
2023-02-19T01:51:53.034Z,10.10
2023-02-19T01:54:22.821Z,10.10
2023-02-19T01:56:50.961Z,10.10
2023-02-19T01:59:18.945Z,10.10
2023-02-19T02:01:46.150Z,10.10
2023-02-19T02:04:14.727Z,10.10
2023-02-19T02:06:56.458Z,10.10
2023-02-19T02:09:46.969Z,10.20
2023-02-19T02:12:14.243Z,10.10
2023-02-19T02:14:45.464Z,10.10
2023-02-19T02:17:49.526Z,10.20
2023-02-19T02:20:51.539Z,10.10
2023-02-19T02:23:21.335Z,10.10
2023-02-19T02:25:57.710Z,10.10
2023-02-19T02:28:36.434Z,10.20
2023-02-19T02:31:10.402Z,10.10
2023-02-19T02:33:57.873Z,10.10
2023-02-19T02:36:37.605Z,10.10
2023-02-19T02:39:08.209Z,10.20
2023-02-19T02:41:35.017Z,10.20
2023-02-19T02:44:01.833Z,10.10
2023-02-19T02:46:35.061Z,10.20
2023-02-19T02:49:22.169Z,10.20
2023-02-19T02:51:53.451Z,10.20
2023-02-19T02:54:48.100Z,10.20
2023-02-19T02:57:16.808Z,10.20
2023-02-19T02:59:45.048Z,10.20
2023-02-19T03:02:18.868Z,10.20
2023-02-19T03:05:16.272Z,10.20
2023-02-19T03:08:12.365Z,10.20
2023-02-19T03:11:21.569Z,10.20
2023-02-19T03:14:12.130Z,10.10
2023-02-19T03:17:01.603Z,10.10
2023-02-19T03:19:31.951Z,10.20
2023-02-19T03:22:14.373Z,10.10
2023-02-19T03:25:31.100Z,10.10
2023-02-19T03:28:00.905Z,10.10
2023-02-19T03:30:34.912Z,10.20
2023-02-19T03:33:13.421Z,10.20
2023-02-19T03:36:12.685Z,10.20
2023-02-19T03:38:53.730Z,10.10
2023-02-19T03:41:27.468Z,10.10
2023-02-19T03:44:16.849Z,10.10
2023-02-19T03:47:05.590Z,10.10
2023-02-19T03:49:42.313Z,10.10
2023-02-19T03:52:16.576Z,10.10
2023-02-19T03:54:55.324Z,10.10
2023-02-19T03:57:45.880Z,10.10
2023-02-19T04:00:34.466Z,10.00
2023-02-19T04:03:20.064Z,9.90
2023-02-19T04:05:58.504Z,10.00
2023-02-19T04:08:26.243Z,9.90
2023-02-19T04:10:55.003Z,9.90
2023-02-19T04:13:27.298Z,9.90
2023-02-19T04:15:57.421Z,10.00
2023-02-19T04:18:32.097Z,9.90
2023-02-19T04:21:00.820Z,9.90
2023-02-19T04:23:36.314Z,9.90
2023-02-19T04:26:04.609Z,9.90
2023-02-19T04:28:31.816Z,9.80
2023-02-19T04:30:58.694Z,9.80
2023-02-19T04:33:26.774Z,9.80
2023-02-19T04:35:53.618Z,9.80
2023-02-19T04:38:20.671Z,9.80
2023-02-19T04:40:47.798Z,9.80
2023-02-19T04:43:14.851Z,9.70
2023-02-19T04:45:41.767Z,9.70
2023-02-19T04:48:09.282Z,9.70
2023-02-19T04:50:39.587Z,9.70
2023-02-19T04:53:07.197Z,9.70
2023-02-19T04:55:38.213Z,9.70
2023-02-19T04:58:05.389Z,9.70
2023-02-19T05:00:34.402Z,9.70
2023-02-19T05:03:01.772Z,9.70
2023-02-19T05:05:28.632Z,9.70
2023-02-19T05:07:55.410Z,9.70
2023-02-19T05:10:22.252Z,9.70
2023-02-19T05:12:49.180Z,9.70
2023-02-19T05:15:16.148Z,9.70
2023-02-19T05:17:42.995Z,9.70
2023-02-19T05:20:10.142Z,9.70
2023-02-19T05:22:37.082Z,9.70
2023-02-19T05:25:04.518Z,9.70
2023-02-19T05:27:31.929Z,9.70
2023-02-19T05:29:58.669Z,9.70
2023-02-19T05:32:25.579Z,9.70
2023-02-19T05:34:52.648Z,9.70
2023-02-19T05:37:19.829Z,9.70
2023-02-19T05:39:46.828Z,9.70
2023-02-19T05:42:15.336Z,9.60
2023-02-19T05:44:42.978Z,9.70
2023-02-19T05:47:10.044Z,9.60
2023-02-19T05:49:36.830Z,9.60
2023-02-19T05:52:04.450Z,9.50
2023-02-19T05:54:32.219Z,9.50
2023-02-19T05:56:59.119Z,9.50
2023-02-19T05:59:26.719Z,9.50
2023-02-19T06:01:55.176Z,9.40
2023-02-19T06:04:22.493Z,9.40
2023-02-19T06:06:49.656Z,9.50
2023-02-19T06:09:16.731Z,9.40
2023-02-19T06:11:44.086Z,9.40
2023-02-19T06:14:14.117Z,9.40
2023-02-19T06:16:41.128Z,9.40
2023-02-19T06:19:07.987Z,9.40
2023-02-19T06:21:34.915Z,9.30
2023-02-19T06:24:06.882Z,9.40
2023-02-19T06:26:34.079Z,9.30
2023-02-19T06:29:00.944Z,9.30
2023-02-19T06:31:27.917Z,9.30
2023-02-19T06:33:55.425Z,9.30
2023-02-19T06:36:22.895Z,9.30
2023-02-19T06:38:50.228Z,9.30
2023-02-19T06:41:17.769Z,9.20
2023-02-19T06:43:44.677Z,9.20
2023-02-19T06:46:13.128Z,9.20
2023-02-19T06:48:41.700Z,9.20
2023-02-19T06:51:14.058Z,9.20
2023-02-19T06:53:41.181Z,9.20
2023-02-19T06:56:30.224Z,9.20
2023-02-19T06:58:59.880Z,9.20
2023-02-19T07:01:28.337Z,9.30
2023-02-19T07:03:55.221Z,9.20
2023-02-19T07:06:23.728Z,9.20
2023-02-19T07:08:51.678Z,9.30
2023-02-19T07:11:18.842Z,9.20
2023-02-19T07:13:45.955Z,9.20
2023-02-19T07:16:13.061Z,9.20
2023-02-19T07:18:40.697Z,9.20
2023-02-19T07:21:08.920Z,9.20
2023-02-19T07:23:36.363Z,9.20
2023-02-19T07:26:03.756Z,9.20
2023-02-19T07:28:30.560Z,9.20
2023-02-19T07:31:01.526Z,9.20
2023-02-19T07:33:28.500Z,9.30
2023-02-19T07:35:55.304Z,9.20
2023-02-19T07:38:23.805Z,9.30
2023-02-19T07:40:51.235Z,9.30
2023-02-19T07:43:18.420Z,9.30
2023-02-19T07:45:45.727Z,9.30
2023-02-19T07:48:12.747Z,9.30
2023-02-19T07:50:39.684Z,9.30
2023-02-19T07:53:06.654Z,9.40
2023-02-19T07:55:34.281Z,9.40
2023-02-19T07:58:01.176Z,9.40
2023-02-19T08:00:28.080Z,9.40
2023-02-19T08:03:00.888Z,9.40
2023-02-19T08:05:36.892Z,9.40
2023-02-19T08:08:06.728Z,9.40
2023-02-19T08:10:52.000Z,9.40
2023-02-19T08:13:19.411Z,9.40
2023-02-19T08:15:46.919Z,9.50
2023-02-19T08:18:15.256Z,9.50
2023-02-19T08:20:42.892Z,9.50
2023-02-19T08:23:10.575Z,9.50
2023-02-19T08:25:40.554Z,9.50
2023-02-19T08:28:08.792Z,9.50
2023-02-19T08:30:38.176Z,9.50
2023-02-19T08:33:07.330Z,9.50
2023-02-19T08:35:37.743Z,9.50
2023-02-19T08:38:06.417Z,9.50
2023-02-19T08:40:33.923Z,9.60
2023-02-19T08:43:10.932Z,9.60
2023-02-19T08:45:40.244Z,9.60
2023-02-19T08:48:07.976Z,9.60
2023-02-19T08:50:35.766Z,9.60
2023-02-19T08:53:03.564Z,9.70
2023-02-19T08:55:30.458Z,9.70
2023-02-19T08:57:57.347Z,9.70
2023-02-19T09:00:24.394Z,9.70
2023-02-19T09:02:51.275Z,9.70
2023-02-19T09:05:18.154Z,9.80
2023-02-19T09:07:44.907Z,9.80
2023-02-19T09:10:13.738Z,9.80
2023-02-19T09:12:41.033Z,9.80
2023-02-19T09:15:08.174Z,9.80
2023-02-19T09:17:34.942Z,9.80
2023-02-19T09:20:01.975Z,9.80
2023-02-19T09:22:29.331Z,9.80
2023-02-19T09:24:56.128Z,9.70
2023-02-19T09:27:23.158Z,9.70
2023-02-19T09:29:49.986Z,9.70
2023-02-19T09:32:19.082Z,9.70
2023-02-19T09:34:46.157Z,9.70
2023-02-19T09:37:15.051Z,9.70
2023-02-19T09:39:41.834Z,9.70
2023-02-19T09:42:32.071Z,9.70
2023-02-19T09:45:00.961Z,9.70
2023-02-19T09:47:32.821Z,9.70
2023-02-19T09:50:10.463Z,9.70
2023-02-19T09:52:42.526Z,9.70
2023-02-19T09:55:18.786Z,9.70
2023-02-19T09:57:46.934Z,9.80
2023-02-19T10:00:19.949Z,9.80
2023-02-19T10:02:46.922Z,9.70
2023-02-19T10:05:15.819Z,9.80
2023-02-19T10:07:49.198Z,9.80
2023-02-19T10:10:15.918Z,9.90
2023-02-19T10:12:52.226Z,9.90
2023-02-19T10:15:44.229Z,9.90
2023-02-19T10:18:11.384Z,9.90
2023-02-19T10:20:38.884Z,9.80
2023-02-19T10:23:07.855Z,9.90
2023-02-19T10:25:35.584Z,10.00
2023-02-19T10:28:03.494Z,10.00
2023-02-19T10:30:33.232Z,10.00
2023-02-19T10:33:09.918Z,10.10
2023-02-19T10:35:51.234Z,10.20
2023-02-19T10:38:20.477Z,10.30
2023-02-19T10:40:48.429Z,10.40
2023-02-19T10:43:31.263Z,10.40
2023-02-19T10:46:00.041Z,10.50
2023-02-19T10:48:32.501Z,10.50
2023-02-19T10:51:09.444Z,10.60
2023-02-19T10:53:42.858Z,10.60
2023-02-19T10:56:14.519Z,10.60
2023-02-19T10:58:44.893Z,10.50
2023-02-19T11:01:20.861Z,10.60
2023-02-19T11:03:50.333Z,10.60
2023-02-19T11:06:20.876Z,10.70
2023-02-19T11:08:59.740Z,10.50
2023-02-19T11:11:31.264Z,10.50
2023-02-19T11:13:59.704Z,10.40
2023-02-19T11:16:48.265Z,10.20
2023-02-19T11:19:24.676Z,10.20
2023-02-19T11:21:51.899Z,10.10
2023-02-19T11:24:37.558Z,10.20
2023-02-19T11:27:07.251Z,10.30
2023-02-19T11:29:37.091Z,10.40
2023-02-19T11:32:22.342Z,10.60
2023-02-19T11:34:49.230Z,10.80
2023-02-19T11:37:18.507Z,10.70
2023-02-19T11:39:50.862Z,10.60
2023-02-19T11:42:37.010Z,10.50
2023-02-19T11:45:18.669Z,10.50
2023-02-19T11:47:57.602Z,10.40
2023-02-19T11:50:45.364Z,10.30
2023-02-19T11:53:15.168Z,10.20
2023-02-19T11:56:12.842Z,10.10
2023-02-19T11:58:51.442Z,9.90
2023-02-19T12:01:52.765Z,9.90
2023-02-19T12:04:47.444Z,9.80
2023-02-19T12:07:48.081Z,9.80
2023-02-19T12:10:25.022Z,9.90
2023-02-19T12:13:12.257Z,10.20
2023-02-19T12:16:15.549Z,10.30
2023-02-19T12:19:00.406Z,10.20
2023-02-19T12:21:55.155Z,10.00
2023-02-19T12:24:56.666Z,9.70
2023-02-19T12:27:50.331Z,9.50
2023-02-19T12:30:53.446Z,9.40
2023-02-19T12:33:23.129Z,9.40
2023-02-19T12:36:18.963Z,9.40
2023-02-19T12:38:59.554Z,9.40
2023-02-19T12:41:48.868Z,9.60
2023-02-19T12:44:24.904Z,9.70
2023-02-19T12:47:03.872Z,9.80
2023-02-19T12:49:50.728Z,9.90
2023-02-19T12:52:25.940Z,9.90
2023-02-19T12:55:01.453Z,9.90
2023-02-19T12:57:35.092Z,9.90
2023-02-19T13:00:27.996Z,10.00
2023-02-19T13:03:20.982Z,10.00
2023-02-19T13:06:40.170Z,10.00
2023-02-19T13:09:14.878Z,10.00
2023-02-19T13:11:58.769Z,10.00
2023-02-19T13:14:38.402Z,10.00
2023-02-19T13:17:22.488Z,10.00
2023-02-19T13:19:52.762Z,10.00
2023-02-19T13:22:56.648Z,10.00
2023-02-19T13:25:28.468Z,10.00
2023-02-19T13:27:55.277Z,10.00
2023-02-19T13:30:54.032Z,10.00
2023-02-19T13:33:36.394Z,10.00
2023-02-19T13:36:22.500Z,10.10
2023-02-19T13:38:50.391Z,10.10
2023-02-19T13:41:29.939Z,10.10
2023-02-19T13:44:00.734Z,10.20
2023-02-19T13:46:36.800Z,10.20
2023-02-19T13:49:28.679Z,10.20
2023-02-19T13:52:21.413Z,10.20
2023-02-19T13:54:48.436Z,10.20
2023-02-19T13:57:24.385Z,10.20
2023-02-19T13:59:54.002Z,10.10
2023-02-19T14:02:21.197Z,9.90
2023-02-19T14:05:03.450Z,9.90
2023-02-19T14:07:47.072Z,9.80
2023-02-19T14:10:51.815Z,9.60
2023-02-19T14:13:55.823Z,9.50
2023-02-19T14:16:29.774Z,9.50
2023-02-19T14:18:56.688Z,9.50
2023-02-19T14:21:27.939Z,9.50
2023-02-19T14:23:58.804Z,9.40
2023-02-19T14:26:27.534Z,9.40
2023-02-19T14:28:54.895Z,9.40
2023-02-19T14:31:29.388Z,9.50
2023-02-19T14:34:00.190Z,9.40
2023-02-19T14:36:48.885Z,9.50
2023-02-19T14:39:37.858Z,9.40
2023-02-19T14:42:20.819Z,9.40
2023-02-19T14:44:52.371Z,9.40
2023-02-19T14:47:22.548Z,9.40
2023-02-19T14:50:01.065Z,9.40
2023-02-19T14:52:45.730Z,9.40
2023-02-19T14:55:32.758Z,9.40
2023-02-19T14:58:21.022Z,9.40
2023-02-19T15:00:48.021Z,9.40
2023-02-19T15:03:38.860Z,9.40
2023-02-19T15:06:07.387Z,9.40
2023-02-19T15:08:59.227Z,9.40
2023-02-19T15:11:29.539Z,9.40
2023-02-19T15:13:59.529Z,9.40
2023-02-19T15:16:31.306Z,9.40
2023-02-19T15:18:59.942Z,9.40
2023-02-19T15:21:32.439Z,9.40
2023-02-19T15:24:05.345Z,9.50
2023-02-19T15:26:36.821Z,9.40
2023-02-19T15:29:15.927Z,9.40
2023-02-19T15:32:02.286Z,9.50
2023-02-19T15:34:31.395Z,9.40
2023-02-19T15:37:07.856Z,9.40
2023-02-19T15:39:46.485Z,9.40
2023-02-19T15:42:35.093Z,9.40
2023-02-19T15:45:22.247Z,9.40
2023-02-19T15:47:58.842Z,9.40
2023-02-19T15:50:31.980Z,9.40
2023-02-19T15:53:07.156Z,9.40
2023-02-19T15:55:46.356Z,9.40
2023-02-19T15:58:46.775Z,9.40
2023-02-19T16:01:20.317Z,9.30
2023-02-19T16:03:47.701Z,9.40
2023-02-19T16:06:17.150Z,9.30
2023-02-19T16:08:46.334Z,9.30
2023-02-19T16:11:40.367Z,9.30
2023-02-19T16:14:29.184Z,9.30
2023-02-19T16:17:00.385Z,9.30
2023-02-19T16:19:35.551Z,9.30
2023-02-19T16:22:02.486Z,9.20
2023-02-19T16:24:36.888Z,9.20
2023-02-19T16:27:05.058Z,9.20
2023-02-19T16:29:33.132Z,9.10
2023-02-19T16:32:02.928Z,9.10
2023-02-19T16:34:46.750Z,9.10
2023-02-19T16:37:37.546Z,9.10
2023-02-19T16:40:07.336Z,9.10
2023-02-19T16:42:49.868Z,9.00
2023-02-19T16:45:17.884Z,9.00
2023-02-19T16:47:48.276Z,9.00
2023-02-19T16:50:21.796Z,9.00
2023-02-19T16:52:56.571Z,8.90
2023-02-19T16:55:23.984Z,8.90
2023-02-19T16:57:51.282Z,8.90
2023-02-19T17:00:27.136Z,8.90
2023-02-19T17:02:58.021Z,8.90
2023-02-19T17:05:28.326Z,8.80
2023-02-19T17:07:55.149Z,8.90
2023-02-19T17:10:27.998Z,8.80
2023-02-19T17:12:55.696Z,8.80
2023-02-19T17:15:23.663Z,8.80
2023-02-19T17:17:50.556Z,8.70
2023-02-19T17:20:17.356Z,8.80
2023-02-19T17:22:44.627Z,8.80
2023-02-19T17:25:11.538Z,8.70
2023-02-19T17:27:38.625Z,8.70
2023-02-19T17:30:25.571Z,8.80
2023-02-19T17:32:52.455Z,8.70
2023-02-19T17:35:19.308Z,8.70
2023-02-19T17:37:46.259Z,8.70
2023-02-19T17:40:32.790Z,8.70
2023-02-19T17:43:00.297Z,8.60
2023-02-19T17:45:27.070Z,8.60
2023-02-19T17:47:53.875Z,8.60
2023-02-19T17:50:26.817Z,8.50
2023-02-19T17:52:53.718Z,8.60
2023-02-19T17:55:20.659Z,8.50
2023-02-19T17:57:49.079Z,8.50
2023-02-19T18:00:19.134Z,8.50
2023-02-19T18:02:45.997Z,8.40
2023-02-19T18:05:12.995Z,8.40
2023-02-19T18:07:39.845Z,8.30
2023-02-19T18:10:07.700Z,8.30
2023-02-19T18:12:34.533Z,8.20
2023-02-19T18:15:01.472Z,8.20
2023-02-19T18:17:28.359Z,8.20
2023-02-19T18:19:55.225Z,8.30
2023-02-19T18:22:22.024Z,8.20
2023-02-19T18:24:50.580Z,8.20
2023-02-19T18:29:51.743Z,8.10
2023-02-19T18:32:19.822Z,8.10
2023-02-19T18:34:54.367Z,8.00
2023-02-19T18:37:22.722Z,8.00
2023-02-19T18:39:49.593Z,8.10
2023-02-19T18:42:16.679Z,8.10
2023-02-19T18:44:43.863Z,8.10
2023-02-19T18:47:11.565Z,8.20
2023-02-19T18:49:38.773Z,8.10
2023-02-19T18:52:06.295Z,8.10
2023-02-19T18:54:33.385Z,8.10
2023-02-19T18:57:01.947Z,8.20
2023-02-19T18:59:28.781Z,8.20
2023-02-19T19:01:55.859Z,8.20
2023-02-19T19:04:22.700Z,8.30
2023-02-19T19:06:49.614Z,8.30
2023-02-19T19:09:16.519Z,8.30
2023-02-19T19:11:44.460Z,8.20
2023-02-19T19:14:11.280Z,8.00
2023-02-19T19:16:38.118Z,8.00
2023-02-19T19:19:04.900Z,8.10
2023-02-19T19:21:31.739Z,8.00
2023-02-19T19:23:58.698Z,8.00
2023-02-19T19:26:25.700Z,8.00
2023-02-19T19:28:52.547Z,8.00
2023-02-19T19:31:20.975Z,8.00
2023-02-19T19:33:49.032Z,8.00
2023-02-19T19:36:20.650Z,8.00
2023-02-19T19:38:48.386Z,8.00
2023-02-19T19:41:16.944Z,8.00
2023-02-19T19:43:43.812Z,7.90
2023-02-19T19:46:10.898Z,7.90
2023-02-19T19:48:40.697Z,7.90
2023-02-19T19:51:08.204Z,7.90
2023-02-19T19:53:35.166Z,7.90
2023-02-19T19:56:01.980Z,7.90
2023-02-19T19:58:28.756Z,7.90
2023-02-19T20:00:56.171Z,7.90
2023-02-19T20:03:22.969Z,8.00
2023-02-19T20:05:52.720Z,7.80
2023-02-19T20:08:19.646Z,7.90
2023-02-19T20:10:46.690Z,7.90
2023-02-19T20:13:17.606Z,7.80
2023-02-19T20:15:44.671Z,7.80
2023-02-19T20:18:11.961Z,7.80
2023-02-19T20:20:38.764Z,7.90
2023-02-19T20:23:05.603Z,7.90
2023-02-19T20:25:32.392Z,7.90
2023-02-19T20:27:59.477Z,7.80
2023-02-19T20:30:26.364Z,7.80
2023-02-19T20:32:53.758Z,7.80
2023-02-19T20:35:21.151Z,7.80
2023-02-19T20:37:49.474Z,7.80
2023-02-19T20:40:18.325Z,7.80
2023-02-19T20:42:45.247Z,7.80
2023-02-19T20:45:12.229Z,7.70
2023-02-19T20:47:40.282Z,7.70
2023-02-19T20:50:07.793Z,7.70
2023-02-19T20:52:34.624Z,7.60
2023-02-19T20:55:01.499Z,7.60
2023-02-19T20:57:28.281Z,7.60
2023-02-19T20:59:55.177Z,7.60
2023-02-19T21:02:27.807Z,7.50
2023-02-19T21:04:56.300Z,7.50
2023-02-19T21:07:24.610Z,7.50
2023-02-19T21:09:52.201Z,7.50
2023-02-19T21:12:20.762Z,7.50
2023-02-19T21:14:48.034Z,7.40
2023-02-19T21:17:15.174Z,7.40
2023-02-19T21:19:42.027Z,7.40
2023-02-19T21:22:08.875Z,7.30
2023-02-19T21:24:35.775Z,7.30
2023-02-19T21:27:02.545Z,7.30
2023-02-19T21:29:29.435Z,7.30
2023-02-19T21:31:57.756Z,7.30
2023-02-19T21:34:28.237Z,7.30
2023-02-19T21:36:56.381Z,7.20
